sensor_id;sensor_type;location;lat;lon;timestamp;P1;durP1;ratioP1;P2;durP2;ratioP2
16286;SDS011;8251;53.568;10.018;2024-03-02T00:00:38;18.57;;;9.80;;
16286;SDS011;8251;53.568;10.018;2024-03-02T00:03:05;16.13;;;9.87;;
16286;SDS011;8251;53.568;10.018;2024-03-02T00:05:34;15.23;;;9.33;;
16286;SDS011;8251;53.568;10.018;2024-03-02T00:08:01;17.70;;;10.07;;
16286;SDS011;8251;53.568;10.018;2024-03-02T00:10:35;16.07;;;9.17;;
16286;SDS011;8251;53.568;10.018;2024-03-02T00:13:04;19.63;;;9.20;;
16286;SDS011;8251;53.568;10.018;2024-03-02T00:15:45;16.33;;;9.77;;
16286;SDS011;8251;53.568;10.018;2024-03-02T00:18:16;18.20;;;9.47;;
16286;SDS011;8251;53.568;10.018;2024-03-02T00:20:45;17.83;;;8.97;;
16286;SDS011;8251;53.568;10.018;2024-03-02T00:23:14;17.13;;;9.53;;
16286;SDS011;8251;53.568;10.018;2024-03-02T00:25:43;18.23;;;9.53;;
16286;SDS011;8251;53.568;10.018;2024-03-02T00:28:14;14.43;;;9.53;;
16286;SDS011;8251;53.568;10.018;2024-03-02T00:30:54;17.80;;;9.40;;
16286;SDS011;8251;53.568;10.018;2024-03-02T00:33:23;18.50;;;10.10;;
16286;SDS011;8251;53.568;10.018;2024-03-02T00:35:52;20.03;;;9.87;;
16286;SDS011;8251;53.568;10.018;2024-03-02T00:38:19;16.60;;;9.67;;
16286;SDS011;8251;53.568;10.018;2024-03-02T00:40:47;17.80;;;10.07;;
16286;SDS011;8251;53.568;10.018;2024-03-02T00:43:35;16.10;;;9.23;;
16286;SDS011;8251;53.568;10.018;2024-03-02T00:46:12;17.27;;;9.60;;
16286;SDS011;8251;53.568;10.018;2024-03-02T00:48:41;18.17;;;10.30;;
16286;SDS011;8251;53.568;10.018;2024-03-02T00:51:15;23.07;;;10.93;;
16286;SDS011;8251;53.568;10.018;2024-03-02T00:53:41;18.40;;;9.97;;
16286;SDS011;8251;53.568;10.018;2024-03-02T00:56:09;18.50;;;10.07;;
16286;SDS011;8251;53.568;10.018;2024-03-02T00:58:37;24.37;;;12.17;;
16286;SDS011;8251;53.568;10.018;2024-03-02T01:01:04;20.77;;;12.80;;
16286;SDS011;8251;53.568;10.018;2024-03-02T01:03:33;24.53;;;13.67;;
16286;SDS011;8251;53.568;10.018;2024-03-02T01:06:00;26.03;;;13.07;;
16286;SDS011;8251;53.568;10.018;2024-03-02T01:08:27;29.33;;;13.27;;
16286;SDS011;8251;53.568;10.018;2024-03-02T01:10:54;25.53;;;14.57;;
16286;SDS011;8251;53.568;10.018;2024-03-02T01:13:21;28.17;;;14.03;;
16286;SDS011;8251;53.568;10.018;2024-03-02T01:15:49;28.57;;;14.03;;
16286;SDS011;8251;53.568;10.018;2024-03-02T01:18:16;26.77;;;12.67;;
16286;SDS011;8251;53.568;10.018;2024-03-02T01:20:44;28.53;;;13.67;;
16286;SDS011;8251;53.568;10.018;2024-03-02T01:23:11;27.70;;;13.93;;
16286;SDS011;8251;53.568;10.018;2024-03-02T01:25:38;27.37;;;14.90;;
16286;SDS011;8251;53.568;10.018;2024-03-02T01:28:05;28.20;;;14.77;;
16286;SDS011;8251;53.568;10.018;2024-03-02T01:30:32;30.20;;;15.03;;
16286;SDS011;8251;53.568;10.018;2024-03-02T01:32:59;33.60;;;15.13;;
16286;SDS011;8251;53.568;10.018;2024-03-02T01:35:27;28.87;;;15.03;;
16286;SDS011;8251;53.568;10.018;2024-03-02T01:37:55;30.57;;;17.43;;
16286;SDS011;8251;53.568;10.018;2024-03-02T01:40:22;29.87;;;15.40;;
16286;SDS011;8251;53.568;10.018;2024-03-02T01:42:51;29.13;;;15.77;;
16286;SDS011;8251;53.568;10.018;2024-03-02T01:45:18;28.60;;;14.70;;
16286;SDS011;8251;53.568;10.018;2024-03-02T01:47:45;32.53;;;16.03;;
16286;SDS011;8251;53.568;10.018;2024-03-02T01:50:12;32.53;;;15.37;;
16286;SDS011;8251;53.568;10.018;2024-03-02T01:52:39;29.20;;;15.30;;
16286;SDS011;8251;53.568;10.018;2024-03-02T01:55:08;27.43;;;14.77;;
16286;SDS011;8251;53.568;10.018;2024-03-02T01:57:34;31.17;;;16.07;;
16286;SDS011;8251;53.568;10.018;2024-03-02T02:00:01;31.33;;;16.17;;
16286;SDS011;8251;53.568;10.018;2024-03-02T02:02:28;30.43;;;14.97;;
16286;SDS011;8251;53.568;10.018;2024-03-02T02:04:55;30.67;;;15.77;;
16286;SDS011;8251;53.568;10.018;2024-03-02T02:07:22;32.80;;;15.70;;
16286;SDS011;8251;53.568;10.018;2024-03-02T02:09:49;28.70;;;15.50;;
16286;SDS011;8251;53.568;10.018;2024-03-02T02:12:17;33.00;;;15.30;;
16286;SDS011;8251;53.568;10.018;2024-03-02T02:14:47;29.17;;;15.93;;
16286;SDS011;8251;53.568;10.018;2024-03-02T02:17:15;29.77;;;15.07;;
16286;SDS011;8251;53.568;10.018;2024-03-02T02:19:42;26.67;;;15.83;;
16286;SDS011;8251;53.568;10.018;2024-03-02T02:22:10;35.27;;;16.80;;
16286;SDS011;8251;53.568;10.018;2024-03-02T02:24:39;34.00;;;16.23;;
16286;SDS011;8251;53.568;10.018;2024-03-02T02:27:12;35.50;;;17.30;;
16286;SDS011;8251;53.568;10.018;2024-03-02T02:29:40;26.83;;;15.47;;
16286;SDS011;8251;53.568;10.018;2024-03-02T02:32:07;29.83;;;15.80;;
16286;SDS011;8251;53.568;10.018;2024-03-02T02:34:33;30.13;;;15.57;;
16286;SDS011;8251;53.568;10.018;2024-03-02T02:37:00;32.53;;;17.17;;
16286;SDS011;8251;53.568;10.018;2024-03-02T02:39:28;30.40;;;14.83;;
16286;SDS011;8251;53.568;10.018;2024-03-02T02:41:55;30.73;;;15.83;;
16286;SDS011;8251;53.568;10.018;2024-03-02T02:44:22;31.00;;;15.43;;
16286;SDS011;8251;53.568;10.018;2024-03-02T02:46:49;28.87;;;14.73;;
16286;SDS011;8251;53.568;10.018;2024-03-02T02:49:16;31.57;;;15.23;;
16286;SDS011;8251;53.568;10.018;2024-03-02T02:51:44;35.00;;;16.10;;
16286;SDS011;8251;53.568;10.018;2024-03-02T02:54:11;35.20;;;15.10;;
16286;SDS011;8251;53.568;10.018;2024-03-02T02:56:39;32.90;;;15.33;;
16286;SDS011;8251;53.568;10.018;2024-03-02T02:59:06;29.40;;;15.67;;
16286;SDS011;8251;53.568;10.018;2024-03-02T03:01:33;34.30;;;15.93;;
16286;SDS011;8251;53.568;10.018;2024-03-02T03:03:59;32.07;;;16.87;;
16286;SDS011;8251;53.568;10.018;2024-03-02T03:06:26;28.80;;;14.87;;
16286;SDS011;8251;53.568;10.018;2024-03-02T03:08:53;29.90;;;15.97;;
16286;SDS011;8251;53.568;10.018;2024-03-02T03:11:20;29.70;;;14.63;;
16286;SDS011;8251;53.568;10.018;2024-03-02T03:13:49;33.77;;;15.83;;
16286;SDS011;8251;53.568;10.018;2024-03-02T03:16:16;32.00;;;15.53;;
16286;SDS011;8251;53.568;10.018;2024-03-02T03:18:42;33.20;;;16.83;;
16286;SDS011;8251;53.568;10.018;2024-03-02T03:21:09;31.87;;;15.57;;
16286;SDS011;8251;53.568;10.018;2024-03-02T03:23:37;27.33;;;14.80;;
16286;SDS011;8251;53.568;10.018;2024-03-02T03:26:03;25.37;;;14.13;;
16286;SDS011;8251;53.568;10.018;2024-03-02T03:28:30;31.70;;;15.77;;
16286;SDS011;8251;53.568;10.018;2024-03-02T03:30:58;28.00;;;14.03;;
16286;SDS011;8251;53.568;10.018;2024-03-02T03:33:25;32.83;;;15.17;;
16286;SDS011;8251;53.568;10.018;2024-03-02T03:35:52;32.27;;;15.70;;
16286;SDS011;8251;53.568;10.018;2024-03-02T03:38:19;30.43;;;16.10;;
16286;SDS011;8251;53.568;10.018;2024-03-02T03:40:46;30.80;;;15.90;;
16286;SDS011;8251;53.568;10.018;2024-03-02T03:43:13;33.53;;;16.53;;
16286;SDS011;8251;53.568;10.018;2024-03-02T03:45:39;37.33;;;15.40;;
16286;SDS011;8251;53.568;10.018;2024-03-02T03:48:08;28.10;;;16.07;;
16286;SDS011;8251;53.568;10.018;2024-03-02T03:50:35;28.10;;;15.37;;
16286;SDS011;8251;53.568;10.018;2024-03-02T03:53:03;30.37;;;16.43;;
16286;SDS011;8251;53.568;10.018;2024-03-02T03:55:30;26.07;;;14.80;;
16286;SDS011;8251;53.568;10.018;2024-03-02T03:57:57;29.83;;;16.00;;
16286;SDS011;8251;53.568;10.018;2024-03-02T04:00:24;30.03;;;15.50;;
16286;SDS011;8251;53.568;10.018;2024-03-02T04:02:51;25.80;;;14.37;;
16286;SDS011;8251;53.568;10.018;2024-03-02T04:05:19;28.20;;;15.47;;
16286;SDS011;8251;53.568;10.018;2024-03-02T04:07:46;28.00;;;14.77;;
16286;SDS011;8251;53.568;10.018;2024-03-02T04:10:13;30.80;;;15.27;;
16286;SDS011;8251;53.568;10.018;2024-03-02T04:12:41;29.37;;;15.27;;
16286;SDS011;8251;53.568;10.018;2024-03-02T04:15:08;27.43;;;15.00;;
16286;SDS011;8251;53.568;10.018;2024-03-02T04:17:35;30.33;;;14.60;;
16286;SDS011;8251;53.568;10.018;2024-03-02T04:20:02;27.63;;;14.53;;
16286;SDS011;8251;53.568;10.018;2024-03-02T04:22:32;31.33;;;14.97;;
16286;SDS011;8251;53.568;10.018;2024-03-02T04:25:00;29.13;;;13.93;;
16286;SDS011;8251;53.568;10.018;2024-03-02T04:27:27;25.57;;;13.63;;
16286;SDS011;8251;53.568;10.018;2024-03-02T04:29:54;29.07;;;14.50;;
16286;SDS011;8251;53.568;10.018;2024-03-02T04:32:21;29.33;;;15.10;;
16286;SDS011;8251;53.568;10.018;2024-03-02T04:34:47;28.03;;;14.83;;
16286;SDS011;8251;53.568;10.018;2024-03-02T04:37:14;29.80;;;16.20;;
16286;SDS011;8251;53.568;10.018;2024-03-02T04:39:42;30.90;;;15.37;;
16286;SDS011;8251;53.568;10.018;2024-03-02T04:42:10;24.10;;;14.20;;
16286;SDS011;8251;53.568;10.018;2024-03-02T04:44:37;26.20;;;13.57;;
16286;SDS011;8251;53.568;10.018;2024-03-02T04:47:08;27.83;;;14.30;;
16286;SDS011;8251;53.568;10.018;2024-03-02T04:49:34;27.40;;;14.23;;
16286;SDS011;8251;53.568;10.018;2024-03-02T04:52:03;26.90;;;14.50;;
16286;SDS011;8251;53.568;10.018;2024-03-02T04:54:30;25.37;;;15.07;;
16286;SDS011;8251;53.568;10.018;2024-03-02T04:56:59;29.87;;;15.53;;
16286;SDS011;8251;53.568;10.018;2024-03-02T04:59:25;27.03;;;13.60;;
16286;SDS011;8251;53.568;10.018;2024-03-02T05:01:52;25.83;;;14.87;;
16286;SDS011;8251;53.568;10.018;2024-03-02T05:04:19;26.87;;;14.63;;
16286;SDS011;8251;53.568;10.018;2024-03-02T05:06:46;26.17;;;13.27;;
16286;SDS011;8251;53.568;10.018;2024-03-02T05:09:17;24.17;;;14.87;;
16286;SDS011;8251;53.568;10.018;2024-03-02T05:11:44;26.17;;;13.90;;
16286;SDS011;8251;53.568;10.018;2024-03-02T05:14:31;21.90;;;12.77;;
16286;SDS011;8251;53.568;10.018;2024-03-02T05:16:58;26.73;;;13.60;;
16286;SDS011;8251;53.568;10.018;2024-03-02T05:19:25;28.33;;;14.20;;
16286;SDS011;8251;53.568;10.018;2024-03-02T05:21:52;29.27;;;13.67;;
16286;SDS011;8251;53.568;10.018;2024-03-02T05:24:19;27.60;;;14.27;;
16286;SDS011;8251;53.568;10.018;2024-03-02T05:26:46;23.63;;;13.70;;
16286;SDS011;8251;53.568;10.018;2024-03-02T05:29:13;23.67;;;14.27;;
16286;SDS011;8251;53.568;10.018;2024-03-02T05:31:41;25.97;;;13.57;;
16286;SDS011;8251;53.568;10.018;2024-03-02T05:34:08;23.33;;;12.70;;
16286;SDS011;8251;53.568;10.018;2024-03-02T05:36:34;29.43;;;14.80;;
16286;SDS011;8251;53.568;10.018;2024-03-02T05:39:03;23.93;;;13.90;;
16286;SDS011;8251;53.568;10.018;2024-03-02T05:41:34;27.87;;;14.17;;
16286;SDS011;8251;53.568;10.018;2024-03-02T05:44:00;27.27;;;13.43;;
16286;SDS011;8251;53.568;10.018;2024-03-02T05:46:28;23.20;;;13.67;;
16286;SDS011;8251;53.568;10.018;2024-03-02T05:48:56;22.97;;;13.90;;
16286;SDS011;8251;53.568;10.018;2024-03-02T05:51:23;24.67;;;13.97;;
16286;SDS011;8251;53.568;10.018;2024-03-02T05:53:49;21.67;;;13.30;;
16286;SDS011;8251;53.568;10.018;2024-03-02T05:56:16;24.50;;;13.63;;
16286;SDS011;8251;53.568;10.018;2024-03-02T05:58:43;26.50;;;13.57;;
16286;SDS011;8251;53.568;10.018;2024-03-02T06:01:22;25.67;;;13.87;;
16286;SDS011;8251;53.568;10.018;2024-03-02T06:03:53;25.13;;;14.20;;
16286;SDS011;8251;53.568;10.018;2024-03-02T06:06:21;30.53;;;14.30;;
16286;SDS011;8251;53.568;10.018;2024-03-02T06:08:48;23.77;;;12.90;;
16286;SDS011;8251;53.568;10.018;2024-03-02T06:11:16;26.50;;;14.47;;
16286;SDS011;8251;53.568;10.018;2024-03-02T06:13:43;25.70;;;14.03;;
16286;SDS011;8251;53.568;10.018;2024-03-02T06:16:10;24.07;;;13.07;;
16286;SDS011;8251;53.568;10.018;2024-03-02T06:18:36;26.13;;;13.90;;
16286;SDS011;8251;53.568;10.018;2024-03-02T06:21:05;23.10;;;12.53;;
16286;SDS011;8251;53.568;10.018;2024-03-02T06:23:33;24.33;;;13.37;;
16286;SDS011;8251;53.568;10.018;2024-03-02T06:26:00;28.63;;;14.13;;
16286;SDS011;8251;53.568;10.018;2024-03-02T06:28:27;26.33;;;13.60;;
16286;SDS011;8251;53.568;10.018;2024-03-02T06:30:54;28.10;;;14.93;;
16286;SDS011;8251;53.568;10.018;2024-03-02T06:33:21;23.90;;;13.83;;
16286;SDS011;8251;53.568;10.018;2024-03-02T06:35:48;28.37;;;14.67;;
16286;SDS011;8251;53.568;10.018;2024-03-02T06:38:16;27.80;;;13.97;;
16286;SDS011;8251;53.568;10.018;2024-03-02T06:40:43;29.53;;;13.43;;
16286;SDS011;8251;53.568;10.018;2024-03-02T06:43:10;32.80;;;14.70;;
16286;SDS011;8251;53.568;10.018;2024-03-02T06:45:37;29.40;;;14.60;;
16286;SDS011;8251;53.568;10.018;2024-03-02T06:48:04;23.97;;;12.43;;
16286;SDS011;8251;53.568;10.018;2024-03-02T06:50:31;23.93;;;13.20;;
16286;SDS011;8251;53.568;10.018;2024-03-02T06:52:58;31.93;;;13.87;;
16286;SDS011;8251;53.568;10.018;2024-03-02T06:55:26;24.33;;;13.10;;
16286;SDS011;8251;53.568;10.018;2024-03-02T06:57:53;24.93;;;12.60;;
16286;SDS011;8251;53.568;10.018;2024-03-02T07:00:20;25.63;;;13.20;;
16286;SDS011;8251;53.568;10.018;2024-03-02T07:02:47;22.60;;;13.10;;
16286;SDS011;8251;53.568;10.018;2024-03-02T07:05:14;24.20;;;13.67;;
16286;SDS011;8251;53.568;10.018;2024-03-02T07:07:41;27.93;;;13.80;;
16286;SDS011;8251;53.568;10.018;2024-03-02T07:10:08;23.77;;;13.13;;
16286;SDS011;8251;53.568;10.018;2024-03-02T07:12:36;23.43;;;13.13;;
16286;SDS011;8251;53.568;10.018;2024-03-02T07:15:04;25.90;;;13.00;;
16286;SDS011;8251;53.568;10.018;2024-03-02T07:17:50;22.13;;;12.97;;
16286;SDS011;8251;53.568;10.018;2024-03-02T07:20:17;26.43;;;13.63;;
16286;SDS011;8251;53.568;10.018;2024-03-02T07:22:44;23.70;;;13.57;;
16286;SDS011;8251;53.568;10.018;2024-03-02T07:25:11;24.57;;;13.90;;
16286;SDS011;8251;53.568;10.018;2024-03-02T07:27:39;28.77;;;12.43;;
16286;SDS011;8251;53.568;10.018;2024-03-02T07:30:06;21.73;;;12.07;;
16286;SDS011;8251;53.568;10.018;2024-03-02T07:32:34;25.10;;;12.50;;
16286;SDS011;8251;53.568;10.018;2024-03-02T07:35:00;25.13;;;12.53;;
16286;SDS011;8251;53.568;10.018;2024-03-02T07:37:28;23.87;;;13.20;;
16286;SDS011;8251;53.568;10.018;2024-03-02T07:39:55;20.77;;;11.90;;
16286;SDS011;8251;53.568;10.018;2024-03-02T07:42:22;22.40;;;11.80;;
16286;SDS011;8251;53.568;10.018;2024-03-02T07:44:53;26.23;;;12.97;;
16286;SDS011;8251;53.568;10.018;2024-03-02T07:47:20;22.90;;;13.40;;
16286;SDS011;8251;53.568;10.018;2024-03-02T07:49:47;20.80;;;12.23;;
16286;SDS011;8251;53.568;10.018;2024-03-02T07:52:13;22.77;;;13.20;;
16286;SDS011;8251;53.568;10.018;2024-03-02T07:54:40;24.40;;;11.77;;
16286;SDS011;8251;53.568;10.018;2024-03-02T07:57:07;26.77;;;14.03;;
16286;SDS011;8251;53.568;10.018;2024-03-02T07:59:35;23.30;;;12.57;;
16286;SDS011;8251;53.568;10.018;2024-03-02T08:02:04;24.33;;;13.37;;
16286;SDS011;8251;53.568;10.018;2024-03-02T08:04:31;25.60;;;13.87;;
16286;SDS011;8251;53.568;10.018;2024-03-02T08:06:58;26.47;;;13.63;;
16286;SDS011;8251;53.568;10.018;2024-03-02T08:09:25;24.07;;;13.17;;
16286;SDS011;8251;53.568;10.018;2024-03-02T08:11:52;26.23;;;13.10;;
16286;SDS011;8251;53.568;10.018;2024-03-02T08:14:19;27.10;;;13.90;;
16286;SDS011;8251;53.568;10.018;2024-03-02T08:16:46;24.03;;;13.57;;
16286;SDS011;8251;53.568;10.018;2024-03-02T08:19:14;23.50;;;13.23;;
16286;SDS011;8251;53.568;10.018;2024-03-02T08:21:41;23.70;;;13.53;;
16286;SDS011;8251;53.568;10.018;2024-03-02T08:24:09;19.97;;;11.43;;
16286;SDS011;8251;53.568;10.018;2024-03-02T08:26:36;24.30;;;13.20;;
16286;SDS011;8251;53.568;10.018;2024-03-02T08:29:03;28.30;;;13.77;;
16286;SDS011;8251;53.568;10.018;2024-03-02T08:31:30;27.30;;;14.30;;
16286;SDS011;8251;53.568;10.018;2024-03-02T08:33:57;24.83;;;12.70;;
16286;SDS011;8251;53.568;10.018;2024-03-02T08:36:26;23.13;;;13.70;;
16286;SDS011;8251;53.568;10.018;2024-03-02T08:38:52;22.43;;;13.10;;
16286;SDS011;8251;53.568;10.018;2024-03-02T08:41:19;24.80;;;13.30;;
16286;SDS011;8251;53.568;10.018;2024-03-02T08:43:46;28.00;;;13.90;;
16286;SDS011;8251;53.568;10.018;2024-03-02T08:46:13;25.60;;;13.50;;
16286;SDS011;8251;53.568;10.018;2024-03-02T08:48:40;23.47;;;13.97;;
16286;SDS011;8251;53.568;10.018;2024-03-02T08:51:07;23.27;;;13.47;;
16286;SDS011;8251;53.568;10.018;2024-03-02T08:53:36;29.13;;;15.47;;
16286;SDS011;8251;53.568;10.018;2024-03-02T08:56:04;28.60;;;14.53;;
16286;SDS011;8251;53.568;10.018;2024-03-02T08:58:31;28.87;;;12.30;;
16286;SDS011;8251;53.568;10.018;2024-03-02T09:00:58;23.83;;;13.17;;
16286;SDS011;8251;53.568;10.018;2024-03-02T09:03:25;20.00;;;12.27;;
16286;SDS011;8251;53.568;10.018;2024-03-02T09:05:52;26.47;;;14.63;;
16286;SDS011;8251;53.568;10.018;2024-03-02T09:08:19;32.70;;;13.43;;
16286;SDS011;8251;53.568;10.018;2024-03-02T09:10:47;22.63;;;12.60;;
16286;SDS011;8251;53.568;10.018;2024-03-02T09:13:14;22.87;;;13.13;;
16286;SDS011;8251;53.568;10.018;2024-03-02T09:15:41;20.57;;;12.60;;
16286;SDS011;8251;53.568;10.018;2024-03-02T09:18:09;23.23;;;12.70;;
16286;SDS011;8251;53.568;10.018;2024-03-02T09:20:36;21.50;;;12.17;;
16286;SDS011;8251;53.568;10.018;2024-03-02T09:23:03;19.57;;;12.20;;
16286;SDS011;8251;53.568;10.018;2024-03-02T09:25:30;21.73;;;12.37;;
16286;SDS011;8251;53.568;10.018;2024-03-02T09:27:58;24.40;;;12.47;;
16286;SDS011;8251;53.568;10.018;2024-03-02T09:30:25;24.50;;;12.17;;
16286;SDS011;8251;53.568;10.018;2024-03-02T09:32:52;22.97;;;12.70;;
16286;SDS011;8251;53.568;10.018;2024-03-02T09:35:19;22.43;;;11.83;;
16286;SDS011;8251;53.568;10.018;2024-03-02T09:37:46;20.43;;;11.33;;
16286;SDS011;8251;53.568;10.018;2024-03-02T09:40:13;19.27;;;11.17;;
16286;SDS011;8251;53.568;10.018;2024-03-02T09:42:41;21.37;;;11.90;;
16286;SDS011;8251;53.568;10.018;2024-03-02T09:45:10;22.63;;;10.97;;
16286;SDS011;8251;53.568;10.018;2024-03-02T09:47:37;18.37;;;11.17;;
16286;SDS011;8251;53.568;10.018;2024-03-02T09:50:05;17.67;;;11.20;;
16286;SDS011;8251;53.568;10.018;2024-03-02T09:52:32;18.00;;;11.53;;
16286;SDS011;8251;53.568;10.018;2024-03-02T09:55:00;17.83;;;11.13;;
16286;SDS011;8251;53.568;10.018;2024-03-02T09:57:27;18.23;;;10.60;;
16286;SDS011;8251;53.568;10.018;2024-03-02T09:59:54;19.60;;;11.30;;
16286;SDS011;8251;53.568;10.018;2024-03-02T10:02:22;15.40;;;10.27;;
16286;SDS011;8251;53.568;10.018;2024-03-02T10:04:49;17.03;;;10.23;;
16286;SDS011;8251;53.568;10.018;2024-03-02T10:07:17;17.00;;;10.83;;
16286;SDS011;8251;53.568;10.018;2024-03-02T10:09:45;17.63;;;10.77;;
16286;SDS011;8251;53.568;10.018;2024-03-02T10:12:13;15.10;;;9.83;;
16286;SDS011;8251;53.568;10.018;2024-03-02T10:14:44;15.23;;;9.30;;
16286;SDS011;8251;53.568;10.018;2024-03-02T10:17:13;19.37;;;9.80;;
16286;SDS011;8251;53.568;10.018;2024-03-02T10:19:42;16.93;;;10.00;;
16286;SDS011;8251;53.568;10.018;2024-03-02T10:22:09;18.57;;;10.07;;
16286;SDS011;8251;53.568;10.018;2024-03-02T10:24:37;16.03;;;9.87;;
16286;SDS011;8251;53.568;10.018;2024-03-02T10:27:08;18.90;;;9.47;;
16286;SDS011;8251;53.568;10.018;2024-03-02T10:29:39;17.57;;;10.87;;
16286;SDS011;8251;53.568;10.018;2024-03-02T10:32:08;17.70;;;9.93;;
16286;SDS011;8251;53.568;10.018;2024-03-02T10:34:36;18.30;;;9.93;;
16286;SDS011;8251;53.568;10.018;2024-03-02T10:37:26;14.20;;;8.27;;
16286;SDS011;8251;53.568;10.018;2024-03-02T10:39:53;12.73;;;8.70;;
16286;SDS011;8251;53.568;10.018;2024-03-02T10:42:20;15.03;;;8.73;;
16286;SDS011;8251;53.568;10.018;2024-03-02T10:44:48;13.30;;;8.37;;
16286;SDS011;8251;53.568;10.018;2024-03-02T10:47:15;14.30;;;8.57;;
16286;SDS011;8251;53.568;10.018;2024-03-02T10:49:45;11.23;;;7.53;;
16286;SDS011;8251;53.568;10.018;2024-03-02T10:52:14;14.60;;;7.40;;
16286;SDS011;8251;53.568;10.018;2024-03-02T10:54:43;13.20;;;7.03;;
16286;SDS011;8251;53.568;10.018;2024-03-02T10:57:13;13.83;;;8.50;;
16286;SDS011;8251;53.568;10.018;2024-03-02T11:00:00;11.17;;;7.67;;
16286;SDS011;8251;53.568;10.018;2024-03-02T11:02:46;14.70;;;8.33;;
16286;SDS011;8251;53.568;10.018;2024-03-02T11:05:20;12.63;;;7.57;;
16286;SDS011;8251;53.568;10.018;2024-03-02T11:07:53;10.97;;;6.60;;
16286;SDS011;8251;53.568;10.018;2024-03-02T11:10:28;9.97;;;7.37;;
16286;SDS011;8251;53.568;10.018;2024-03-02T11:13:00;11.03;;;6.00;;
16286;SDS011;8251;53.568;10.018;2024-03-02T11:15:30;11.17;;;6.80;;
16286;SDS011;8251;53.568;10.018;2024-03-02T11:18:00;11.77;;;6.83;;
16286;SDS011;8251;53.568;10.018;2024-03-02T11:20:29;13.90;;;6.93;;
16286;SDS011;8251;53.568;10.018;2024-03-02T11:22:56;11.83;;;7.20;;
16286;SDS011;8251;53.568;10.018;2024-03-02T11:25:26;8.90;;;6.13;;
16286;SDS011;8251;53.568;10.018;2024-03-02T11:28:01;12.23;;;6.43;;
16286;SDS011;8251;53.568;10.018;2024-03-02T11:33:24;12.37;;;7.73;;
16286;SDS011;8251;53.568;10.018;2024-03-02T11:35:52;12.10;;;6.23;;
16286;SDS011;8251;53.568;10.018;2024-03-02T11:38:20;9.17;;;5.97;;
16286;SDS011;8251;53.568;10.018;2024-03-02T11:40:47;9.80;;;5.87;;
16286;SDS011;8251;53.568;10.018;2024-03-02T11:43:17;9.00;;;5.37;;
16286;SDS011;8251;53.568;10.018;2024-03-02T11:45:45;11.33;;;6.23;;
16286;SDS011;8251;53.568;10.018;2024-03-02T11:48:13;7.90;;;5.30;;
16286;SDS011;8251;53.568;10.018;2024-03-02T11:50:41;8.33;;;5.40;;
16286;SDS011;8251;53.568;10.018;2024-03-02T11:53:13;8.57;;;6.07;;
16286;SDS011;8251;53.568;10.018;2024-03-02T11:55:41;9.67;;;5.57;;
16286;SDS011;8251;53.568;10.018;2024-03-02T11:58:11;9.47;;;4.80;;
16286;SDS011;8251;53.568;10.018;2024-03-02T12:00:39;10.47;;;5.47;;
16286;SDS011;8251;53.568;10.018;2024-03-02T12:03:07;7.50;;;4.77;;
16286;SDS011;8251;53.568;10.018;2024-03-02T12:05:35;8.53;;;5.20;;
16286;SDS011;8251;53.568;10.018;2024-03-02T12:08:02;7.67;;;4.87;;
16286;SDS011;8251;53.568;10.018;2024-03-02T12:10:31;10.23;;;5.30;;
16286;SDS011;8251;53.568;10.018;2024-03-02T12:12:59;7.03;;;4.90;;
16286;SDS011;8251;53.568;10.018;2024-03-02T12:15:38;9.33;;;5.50;;
16286;SDS011;8251;53.568;10.018;2024-03-02T12:18:06;9.47;;;5.53;;
16286;SDS011;8251;53.568;10.018;2024-03-02T12:20:33;7.33;;;5.43;;
16286;SDS011;8251;53.568;10.018;2024-03-02T12:23:01;7.77;;;4.93;;
16286;SDS011;8251;53.568;10.018;2024-03-02T12:25:31;7.77;;;4.67;;
16286;SDS011;8251;53.568;10.018;2024-03-02T12:27:59;6.47;;;4.23;;
16286;SDS011;8251;53.568;10.018;2024-03-02T12:30:27;9.50;;;5.20;;
16286;SDS011;8251;53.568;10.018;2024-03-02T12:32:58;10.07;;;5.53;;
16286;SDS011;8251;53.568;10.018;2024-03-02T12:35:25;8.00;;;4.73;;
16286;SDS011;8251;53.568;10.018;2024-03-02T12:37:53;9.33;;;5.27;;
16286;SDS011;8251;53.568;10.018;2024-03-02T12:40:21;8.77;;;4.70;;
16286;SDS011;8251;53.568;10.018;2024-03-02T12:42:48;9.43;;;4.23;;
16286;SDS011;8251;53.568;10.018;2024-03-02T12:45:16;8.93;;;4.80;;
16286;SDS011;8251;53.568;10.018;2024-03-02T12:47:48;7.60;;;4.17;;
16286;SDS011;8251;53.568;10.018;2024-03-02T12:50:17;9.47;;;4.93;;
16286;SDS011;8251;53.568;10.018;2024-03-02T12:52:50;5.83;;;4.40;;
16286;SDS011;8251;53.568;10.018;2024-03-02T12:55:19;6.97;;;4.47;;
16286;SDS011;8251;53.568;10.018;2024-03-02T12:57:49;9.27;;;4.80;;
16286;SDS011;8251;53.568;10.018;2024-03-02T13:00:18;6.93;;;4.63;;
16286;SDS011;8251;53.568;10.018;2024-03-02T13:02:47;9.63;;;5.30;;
16286;SDS011;8251;53.568;10.018;2024-03-02T13:05:15;7.67;;;4.47;;
16286;SDS011;8251;53.568;10.018;2024-03-02T13:07:46;11.13;;;5.27;;
16286;SDS011;8251;53.568;10.018;2024-03-02T13:10:13;8.80;;;5.10;;
16286;SDS011;8251;53.568;10.018;2024-03-02T13:12:40;8.13;;;4.87;;
16286;SDS011;8251;53.568;10.018;2024-03-02T13:15:08;9.20;;;4.90;;
16286;SDS011;8251;53.568;10.018;2024-03-02T13:17:35;8.80;;;5.37;;
16286;SDS011;8251;53.568;10.018;2024-03-02T13:20:02;7.73;;;5.17;;
16286;SDS011;8251;53.568;10.018;2024-03-02T13:22:34;9.40;;;5.63;;
16286;SDS011;8251;53.568;10.018;2024-03-02T13:25:02;9.10;;;6.10;;
16286;SDS011;8251;53.568;10.018;2024-03-02T13:27:29;14.27;;;6.33;;
16286;SDS011;8251;53.568;10.018;2024-03-02T13:29:57;11.33;;;6.53;;
16286;SDS011;8251;53.568;10.018;2024-03-02T13:32:24;9.67;;;5.90;;
16286;SDS011;8251;53.568;10.018;2024-03-02T13:34:51;9.63;;;5.60;;
16286;SDS011;8251;53.568;10.018;2024-03-02T13:37:18;10.93;;;6.10;;
16286;SDS011;8251;53.568;10.018;2024-03-02T13:39:46;9.17;;;5.87;;
16286;SDS011;8251;53.568;10.018;2024-03-02T13:42:12;11.30;;;6.60;;
16286;SDS011;8251;53.568;10.018;2024-03-02T13:44:43;11.20;;;6.20;;
16286;SDS011;8251;53.568;10.018;2024-03-02T13:47:22;12.23;;;6.43;;
16286;SDS011;8251;53.568;10.018;2024-03-02T13:49:49;12.90;;;7.13;;
16286;SDS011;8251;53.568;10.018;2024-03-02T13:52:16;9.57;;;5.97;;
16286;SDS011;8251;53.568;10.018;2024-03-02T13:54:43;13.23;;;7.10;;
16286;SDS011;8251;53.568;10.018;2024-03-02T13:57:30;10.33;;;5.83;;
16286;SDS011;8251;53.568;10.018;2024-03-02T13:59:58;12.77;;;7.10;;
16286;SDS011;8251;53.568;10.018;2024-03-02T14:02:26;10.67;;;5.93;;
16286;SDS011;8251;53.568;10.018;2024-03-02T14:04:53;9.90;;;6.10;;
16286;SDS011;8251;53.568;10.018;2024-03-02T14:07:20;10.07;;;6.60;;
16286;SDS011;8251;53.568;10.018;2024-03-02T14:09:48;10.47;;;6.83;;
16286;SDS011;8251;53.568;10.018;2024-03-02T14:12:15;8.90;;;6.67;;
16286;SDS011;8251;53.568;10.018;2024-03-02T14:14:42;10.20;;;6.27;;
16286;SDS011;8251;53.568;10.018;2024-03-02T14:17:09;10.73;;;6.60;;
16286;SDS011;8251;53.568;10.018;2024-03-02T14:19:40;10.47;;;6.47;;
16286;SDS011;8251;53.568;10.018;2024-03-02T14:22:07;9.20;;;6.30;;
16286;SDS011;8251;53.568;10.018;2024-03-02T14:24:34;13.33;;;6.37;;
16286;SDS011;8251;53.568;10.018;2024-03-02T14:27:02;8.77;;;5.70;;
16286;SDS011;8251;53.568;10.018;2024-03-02T14:29:30;9.70;;;6.67;;
16286;SDS011;8251;53.568;10.018;2024-03-02T14:31:58;11.27;;;6.53;;
16286;SDS011;8251;53.568;10.018;2024-03-02T14:34:25;13.93;;;6.70;;
16286;SDS011;8251;53.568;10.018;2024-03-02T14:36:52;10.70;;;6.63;;